Terminal Aerodrome Forecast
Issued by NWS Louisville, KY

Home | Current Version | Previous Version | Text Only | Print | Product List | Glossary On
Versions: 1 2 3 4 5 6 7 8 9 10 11 12 13 14 15 16 17 18 19 20 21 22 23 24 25 26 27 28 29
213
FTUS43 KLMK 171721
TAFSDF
TAF
KSDF 171721Z 1718/1824 26015G22KT P6SM SCT025 BKN040
      TEMPO 1720/1722 BKN025
     FM172200 28012KT P6SM OVC024
     FM180300 28010KT P6SM OVC013
     FM181800 26004KT P6SM BKN025=

USA.gov is the U.S. government's official web portal to all federal, state and local government web resources and services.